Melksham, United Kingdom
Current Conditions -  °F | °C
As of 12:50 AM on Sunday 23 Nov 2014 (Local Time) from EGDM Reporting Station
Light Rain Light Rain  
Wind Chill: 48°   Ceiling: 6000
Heat Index: 48°   Visibility: 3mi
Dew Point: 48°   Wind: 3mph
Humidity: 100%   Direction: 10°N
Pressure: 29.97"   Gusts: NA
Location:  51.37°N, 2.14°W
Report Text: EGDM 230050Z AUTO 01003KT 5000 -RA OVC060/// 09/09 Q1015
Loading
Personal Weather Stations






























Interactive Weather Map New forecast layout! Learn more

10-Day Weather Forecast

Advertisements
Track Severe Weather on mobile